sensor_id;sensor_type;location;lat;lon;timestamp;pressure;altitude;pressure_sealevel;temperature;humidity
60258;BME280;46115;44.484;11.314;2022-10-19T00:00:17;101092.41;;;17.06;89.50
60258;BME280;46115;44.484;11.314;2022-10-19T00:04:39;101100.66;;;17.16;89.72
60258;BME280;46115;44.484;11.314;2022-10-19T00:09:07;101094.88;;;17.09;90.34
60258;BME280;46115;44.484;11.314;2022-10-19T00:13:29;101090.28;;;17.11;90.25
60258;BME280;46115;44.484;11.314;2022-10-19T00:17:52;101095.63;;;17.11;90.11
60258;BME280;46115;44.484;11.314;2022-10-19T00:22:15;101098.31;;;17.11;90.37
60258;BME280;46115;44.484;11.314;2022-10-19T00:26:39;101092.97;;;17.11;90.25
60258;BME280;46115;44.484;11.314;2022-10-19T00:31:03;101091.59;;;17.19;89.65
60258;BME280;46115;44.484;11.314;2022-10-19T00:35:26;101090.19;;;17.13;90.28
60258;BME280;46115;44.484;11.314;2022-10-19T00:39:49;101083.38;;;17.22;89.73
60258;BME280;46115;44.484;11.314;2022-10-19T00:49:16;101077.66;;;17.01;89.92
60258;BME280;46115;44.484;11.314;2022-10-19T00:53:40;101062.97;;;16.94;90.24
60258;BME280;46115;44.484;11.314;2022-10-19T00:58:03;101083.06;;;16.99;89.63
60258;BME280;46115;44.484;11.314;2022-10-19T01:02:26;101081.56;;;16.95;90.25
60258;BME280;46115;44.484;11.314;2022-10-19T01:06:50;101071.03;;;16.79;91.03
60258;BME280;46115;44.484;11.314;2022-10-19T01:11:22;101072.38;;;16.99;90.12
60258;BME280;46115;44.484;11.314;2022-10-19T01:15:53;101072.50;;;16.98;90.36
60258;BME280;46115;44.484;11.314;2022-10-19T01:20:41;101066.50;;;16.94;90.42
60258;BME280;46115;44.484;11.314;2022-10-19T01:25:19;101064.38;;;16.99;90.14
60258;BME280;46115;44.484;11.314;2022-10-19T01:30:02;101062.22;;;16.92;89.96
60258;BME280;46115;44.484;11.314;2022-10-19T01:34:31;101046.91;;;16.81;90.70
60258;BME280;46115;44.484;11.314;2022-10-19T01:39:01;101044.38;;;16.65;91.74
60258;BME280;46115;44.484;11.314;2022-10-19T01:43:32;101011.59;;;16.49;91.40
60258;BME280;46115;44.484;11.314;2022-10-19T01:48:02;101037.91;;;16.55;91.53
60258;BME280;46115;44.484;11.314;2022-10-19T01:52:28;101031.28;;;16.61;91.63
60258;BME280;46115;44.484;11.314;2022-10-19T01:56:52;101029.69;;;16.58;91.72
60258;BME280;46115;44.484;11.314;2022-10-19T02:01:17;101002.84;;;16.47;91.69
60258;BME280;46115;44.484;11.314;2022-10-19T02:05:45;101022.22;;;16.63;91.15
60258;BME280;46115;44.484;11.314;2022-10-19T02:10:08;101027.00;;;16.58;91.62
60258;BME280;46115;44.484;11.314;2022-10-19T02:14:34;101021.31;;;16.50;91.90
60258;BME280;46115;44.484;11.314;2022-10-19T02:19:00;101016.59;;;16.41;92.45
60258;BME280;46115;44.484;11.314;2022-10-19T02:23:25;101011.75;;;16.33;92.83
60258;BME280;46115;44.484;11.314;2022-10-19T02:27:48;101015.84;;;16.39;92.06
60258;BME280;46115;44.484;11.314;2022-10-19T02:32:11;100995.75;;;16.19;92.02
60258;BME280;46115;44.484;11.314;2022-10-19T02:36:34;101008.88;;;16.36;92.10
60258;BME280;46115;44.484;11.314;2022-10-19T02:41:03;101012.91;;;16.15;92.93
60258;BME280;46115;44.484;11.314;2022-10-19T02:45:29;100975.22;;;15.93;92.75
60258;BME280;46115;44.484;11.314;2022-10-19T02:49:53;101009.22;;;16.03;93.27
60258;BME280;46115;44.484;11.314;2022-10-19T02:54:15;100989.81;;;16.01;93.25
60258;BME280;46115;44.484;11.314;2022-10-19T02:58:40;100990.25;;;16.08;93.57
60258;BME280;46115;44.484;11.314;2022-10-19T03:03:02;100982.75;;;16.00;93.73
60258;BME280;46115;44.484;11.314;2022-10-19T03:07:25;100989.81;;;16.01;93.43
60258;BME280;46115;44.484;11.314;2022-10-19T03:11:48;100993.13;;;16.05;93.32
60258;BME280;46115;44.484;11.314;2022-10-19T03:16:12;100990.16;;;15.95;93.34
60258;BME280;46115;44.484;11.314;2022-10-19T03:20:35;100984.56;;;15.85;94.04
60258;BME280;46115;44.484;11.314;2022-10-19T03:24:58;101003.78;;;15.90;94.26
60258;BME280;46115;44.484;11.314;2022-10-19T03:29:20;101003.13;;;16.01;93.70
60258;BME280;46115;44.484;11.314;2022-10-19T03:33:44;101003.50;;;15.95;93.73
60258;BME280;46115;44.484;11.314;2022-10-19T03:38:07;100997.50;;;15.77;94.40
60258;BME280;46115;44.484;11.314;2022-10-19T03:42:29;101005.59;;;15.76;94.32
60258;BME280;46115;44.484;11.314;2022-10-19T03:46:52;101006.66;;;15.73;94.84
60258;BME280;46115;44.484;11.314;2022-10-19T03:51:18;101005.81;;;15.73;94.53
60258;BME280;46115;44.484;11.314;2022-10-19T03:55:41;101003.31;;;15.70;94.39
60258;BME280;46115;44.484;11.314;2022-10-19T04:00:04;100992.75;;;15.68;94.26
60258;BME280;46115;44.484;11.314;2022-10-19T04:04:33;101001.69;;;15.81;94.25
60258;BME280;46115;44.484;11.314;2022-10-19T04:08:58;100992.19;;;15.77;94.78
60258;BME280;46115;44.484;11.314;2022-10-19T04:13:20;101012.94;;;15.72;94.74
60258;BME280;46115;44.484;11.314;2022-10-19T04:17:43;101005.81;;;15.73;94.21
60258;BME280;46115;44.484;11.314;2022-10-19T04:22:06;101007.91;;;15.68;94.39
60258;BME280;46115;44.484;11.314;2022-10-19T04:26:30;101004.81;;;15.59;94.76
60258;BME280;46115;44.484;11.314;2022-10-19T04:30:54;101001.06;;;15.48;94.40
60258;BME280;46115;44.484;11.314;2022-10-19T04:35:17;100999.19;;;15.50;94.43
60258;BME280;46115;44.484;11.314;2022-10-19T04:39:39;101000.31;;;15.46;93.73
60258;BME280;46115;44.484;11.314;2022-10-19T04:44:05;101009.84;;;15.50;93.96
60258;BME280;46115;44.484;11.314;2022-10-19T04:48:28;101014.03;;;15.54;94.02
60258;BME280;46115;44.484;11.314;2022-10-19T04:52:50;101008.78;;;15.38;94.87
60258;BME280;46115;44.484;11.314;2022-10-19T04:57:13;100991.75;;;15.26;95.27
60258;BME280;46115;44.484;11.314;2022-10-19T05:01:37;100998.16;;;15.22;94.58
60258;BME280;46115;44.484;11.314;2022-10-19T05:06:02;101000.97;;;15.35;94.92
60258;BME280;46115;44.484;11.314;2022-10-19T05:10:24;100991.00;;;15.09;95.51
60258;BME280;46115;44.484;11.314;2022-10-19T05:14:47;100994.72;;;15.06;95.88
60258;BME280;46115;44.484;11.314;2022-10-19T05:19:12;100984.28;;;15.17;95.53
60258;BME280;46115;44.484;11.314;2022-10-19T05:23:36;100940.06;;;14.85;95.47
60258;BME280;46115;44.484;11.314;2022-10-19T05:27:58;100990.59;;;15.31;94.70
60258;BME280;46115;44.484;11.314;2022-10-19T05:32:21;100981.81;;;15.14;95.57
60258;BME280;46115;44.484;11.314;2022-10-19T05:36:45;100939.38;;;15.11;95.28
60258;BME280;46115;44.484;11.314;2022-10-19T05:41:08;100983.66;;;15.28;94.78
60258;BME280;46115;44.484;11.314;2022-10-19T05:45:31;100939.66;;;14.92;95.40
60258;BME280;46115;44.484;11.314;2022-10-19T05:49:53;100987.50;;;15.08;95.22
60258;BME280;46115;44.484;11.314;2022-10-19T05:54:18;100985.41;;;15.13;94.86
60258;BME280;46115;44.484;11.314;2022-10-19T05:58:40;100978.19;;;15.15;94.75
60258;BME280;46115;44.484;11.314;2022-10-19T06:03:03;100978.94;;;15.17;94.14
60258;BME280;46115;44.484;11.314;2022-10-19T06:07:26;100986.22;;;15.29;94.59
60258;BME280;46115;44.484;11.314;2022-10-19T06:11:50;100998.97;;;15.39;93.27
60258;BME280;46115;44.484;11.314;2022-10-19T06:16:14;101005.25;;;15.52;92.63
60258;BME280;46115;44.484;11.314;2022-10-19T06:20:39;100990.50;;;15.46;92.65
60258;BME280;46115;44.484;11.314;2022-10-19T06:25:03;101008.19;;;15.77;91.34
60258;BME280;46115;44.484;11.314;2022-10-19T06:29:27;101010.56;;;15.96;90.83
60258;BME280;46115;44.484;11.314;2022-10-19T06:33:50;101015.31;;;15.91;90.51
60258;BME280;46115;44.484;11.314;2022-10-19T06:38:13;101029.94;;;16.27;88.08
60258;BME280;46115;44.484;11.314;2022-10-19T06:42:36;101026.28;;;16.70;86.11
60258;BME280;46115;44.484;11.314;2022-10-19T06:47:01;101040.41;;;17.25;83.18
60258;BME280;46115;44.484;11.314;2022-10-19T06:51:25;101029.13;;;17.46;81.78
60258;BME280;46115;44.484;11.314;2022-10-19T06:55:47;101043.81;;;17.79;79.47
60258;BME280;46115;44.484;11.314;2022-10-19T07:00:11;101054.22;;;18.46;76.63
60258;BME280;46115;44.484;11.314;2022-10-19T07:04:36;101056.09;;;18.69;75.55
60258;BME280;46115;44.484;11.314;2022-10-19T07:08:58;101051.44;;;18.84;74.47
60258;BME280;46115;44.484;11.314;2022-10-19T07:13:23;101055.66;;;19.69;71.21
60258;BME280;46115;44.484;11.314;2022-10-19T07:17:46;101064.38;;;20.51;67.95
60258;BME280;46115;44.484;11.314;2022-10-19T07:22:10;101069.84;;;21.04;65.33
60258;BME280;46115;44.484;11.314;2022-10-19T07:26:33;101072.53;;;22.19;60.84
60258;BME280;46115;44.484;11.314;2022-10-19T07:30:56;101075.56;;;22.26;60.48
60258;BME280;46115;44.484;11.314;2022-10-19T07:35:18;101081.22;;;22.02;61.37
60258;BME280;46115;44.484;11.314;2022-10-19T07:39:42;101068.94;;;22.49;60.47
60258;BME280;46115;44.484;11.314;2022-10-19T07:44:05;101056.59;;;24.11;55.17
60258;BME280;46115;44.484;11.314;2022-10-19T07:48:28;101083.34;;;25.32;51.63
60258;BME280;46115;44.484;11.314;2022-10-19T07:52:51;101076.97;;;24.87;51.97
60258;BME280;46115;44.484;11.314;2022-10-19T07:57:15;101084.06;;;27.14;46.85
60258;BME280;46115;44.484;11.314;2022-10-19T08:01:39;101087.63;;;27.30;46.48
60258;BME280;46115;44.484;11.314;2022-10-19T08:06:05;101087.97;;;28.56;43.96
60258;BME280;46115;44.484;11.314;2022-10-19T08:10:27;101090.75;;;29.56;40.55
60258;BME280;46115;44.484;11.314;2022-10-19T08:14:52;101089.03;;;30.51;39.05
60258;BME280;46115;44.484;11.314;2022-10-19T08:19:15;101085.72;;;31.21;37.34
60258;BME280;46115;44.484;11.314;2022-10-19T08:23:38;101081.97;;;31.08;36.60
60258;BME280;46115;44.484;11.314;2022-10-19T08:28:01;101081.09;;;31.43;35.90
60258;BME280;46115;44.484;11.314;2022-10-19T08:32:26;101074.78;;;31.64;35.99
60258;BME280;46115;44.484;11.314;2022-10-19T08:36:48;101072.00;;;32.61;33.96
60258;BME280;46115;44.484;11.314;2022-10-19T08:41:20;101074.44;;;32.84;33.74
60258;BME280;46115;44.484;11.314;2022-10-19T08:45:47;101084.84;;;33.15;33.60
60258;BME280;46115;44.484;11.314;2022-10-19T08:50:19;101074.53;;;33.30;32.85
60258;BME280;46115;44.484;11.314;2022-10-19T08:54:50;101087.44;;;34.67;30.89
60258;BME280;46115;44.484;11.314;2022-10-19T08:59:20;101085.75;;;33.55;32.75
60258;BME280;46115;44.484;11.314;2022-10-19T09:03:49;101092.31;;;33.67;32.37
60258;BME280;46115;44.484;11.314;2022-10-19T09:08:15;101093.22;;;34.52;31.02
60258;BME280;46115;44.484;11.314;2022-10-19T09:12:41;101088.94;;;35.46;29.74
60258;BME280;46115;44.484;11.314;2022-10-19T09:17:11;101081.19;;;35.05;30.27
60258;BME280;46115;44.484;11.314;2022-10-19T09:21:39;101068.56;;;34.32;31.60
60258;BME280;46115;44.484;11.314;2022-10-19T09:26:12;101065.09;;;33.33;32.56
60258;BME280;46115;44.484;11.314;2022-10-19T09:30:37;101050.22;;;31.21;36.80
60258;BME280;46115;44.484;11.314;2022-10-19T09:35:03;101063.06;;;30.19;38.98
60258;BME280;46115;44.484;11.314;2022-10-19T09:39:28;101048.31;;;28.22;42.98
60258;BME280;46115;44.484;11.314;2022-10-19T09:43:53;101041.47;;;27.47;44.53
60258;BME280;46115;44.484;11.314;2022-10-19T09:48:22;101035.56;;;27.43;45.05
60258;BME280;46115;44.484;11.314;2022-10-19T09:52:47;101035.31;;;26.80;45.98
60258;BME280;46115;44.484;11.314;2022-10-19T09:57:19;101037.22;;;27.03;45.93
60258;BME280;46115;44.484;11.314;2022-10-19T10:01:43;101034.72;;;26.18;48.10
60258;BME280;46115;44.484;11.314;2022-10-19T10:06:07;101031.81;;;27.28;45.48
60258;BME280;46115;44.484;11.314;2022-10-19T10:10:37;101027.41;;;27.27;45.48
60258;BME280;46115;44.484;11.314;2022-10-19T10:15:02;101032.72;;;26.70;46.90
60258;BME280;46115;44.484;11.314;2022-10-19T10:19:29;101025.56;;;26.53;47.14
60258;BME280;46115;44.484;11.314;2022-10-19T10:24:01;101026.97;;;26.31;47.77
60258;BME280;46115;44.484;11.314;2022-10-19T10:28:27;101009.25;;;25.68;49.49
60258;BME280;46115;44.484;11.314;2022-10-19T10:32:52;101012.41;;;25.90;48.78
60258;BME280;46115;44.484;11.314;2022-10-19T10:37:20;101009.03;;;25.96;48.66
60258;BME280;46115;44.484;11.314;2022-10-19T10:41:45;101013.25;;;25.90;49.06
60258;BME280;46115;44.484;11.314;2022-10-19T10:46:14;101010.47;;;25.74;49.36
60258;BME280;46115;44.484;11.314;2022-10-19T10:50:38;100996.00;;;25.99;48.50
60258;BME280;46115;44.484;11.314;2022-10-19T10:55:14;100995.00;;;25.23;48.92
60258;BME280;46115;44.484;11.314;2022-10-19T10:59:43;100996.56;;;25.51;49.15
60258;BME280;46115;44.484;11.314;2022-10-19T11:04:11;100988.50;;;25.33;50.02
60258;BME280;46115;44.484;11.314;2022-10-19T11:08:42;100985.38;;;25.46;50.18
60258;BME280;46115;44.484;11.314;2022-10-19T11:13:14;100974.88;;;25.43;49.98
60258;BME280;46115;44.484;11.314;2022-10-19T11:17:40;100968.50;;;25.52;50.26
60258;BME280;46115;44.484;11.314;2022-10-19T11:22:14;100962.53;;;25.23;50.34
60258;BME280;46115;44.484;11.314;2022-10-19T11:26:47;100947.53;;;25.02;51.03
60258;BME280;46115;44.484;11.314;2022-10-19T11:31:19;100954.75;;;24.84;51.46
60258;BME280;46115;44.484;11.314;2022-10-19T11:35:50;100920.38;;;24.41;52.34
60258;BME280;46115;44.484;11.314;2022-10-19T11:40:18;100935.06;;;24.74;51.11
60258;BME280;46115;44.484;11.314;2022-10-19T11:44:54;100921.28;;;24.85;50.81
60258;BME280;46115;44.484;11.314;2022-10-19T11:49:30;100914.13;;;24.58;51.13
60258;BME280;46115;44.484;11.314;2022-10-19T11:54:06;100918.78;;;24.66;50.91
60258;BME280;46115;44.484;11.314;2022-10-19T11:58:39;100910.41;;;24.77;50.96
60258;BME280;46115;44.484;11.314;2022-10-19T12:03:38;100899.38;;;24.52;51.56
60258;BME280;46115;44.484;11.314;2022-10-19T12:08:19;100888.06;;;24.31;51.84
60258;BME280;46115;44.484;11.314;2022-10-19T12:12:47;100887.78;;;24.78;51.26
60258;BME280;46115;44.484;11.314;2022-10-19T12:17:16;100886.19;;;24.49;52.01
60258;BME280;46115;44.484;11.314;2022-10-19T12:21:40;100885.34;;;24.04;52.64
60258;BME280;46115;44.484;11.314;2022-10-19T12:26:08;100877.41;;;24.30;51.99
60258;BME280;46115;44.484;11.314;2022-10-19T12:30:32;100874.56;;;23.76;52.84
60258;BME280;46115;44.484;11.314;2022-10-19T12:34:58;100866.91;;;23.99;53.00
60258;BME280;46115;44.484;11.314;2022-10-19T12:39:28;100864.84;;;24.11;51.85
60258;BME280;46115;44.484;11.314;2022-10-19T12:44:17;100867.97;;;24.34;52.23
60258;BME280;46115;44.484;11.314;2022-10-19T12:48:42;100860.91;;;24.23;52.26
60258;BME280;46115;44.484;11.314;2022-10-19T12:53:05;100853.41;;;23.99;52.31
60258;BME280;46115;44.484;11.314;2022-10-19T12:57:29;100843.56;;;23.80;52.80
60258;BME280;46115;44.484;11.314;2022-10-19T13:01:53;100807.72;;;23.88;52.75
60258;BME280;46115;44.484;11.314;2022-10-19T13:06:29;100830.00;;;24.35;51.98
60258;BME280;46115;44.484;11.314;2022-10-19T13:11:05;100790.91;;;24.12;51.88
60258;BME280;46115;44.484;11.314;2022-10-19T13:15:56;100822.97;;;24.42;51.95
60258;BME280;46115;44.484;11.314;2022-10-19T13:25:24;100822.53;;;24.19;52.00
60258;BME280;46115;44.484;11.314;2022-10-19T13:29:48;100820.47;;;24.13;52.17
60258;BME280;46115;44.484;11.314;2022-10-19T13:34:14;100785.19;;;23.79;52.21
60258;BME280;46115;44.484;11.314;2022-10-19T13:38:38;100810.81;;;24.11;51.29
60258;BME280;46115;44.484;11.314;2022-10-19T13:43:02;100793.34;;;23.87;52.20
60258;BME280;46115;44.484;11.314;2022-10-19T13:47:33;100792.16;;;24.00;51.91
60258;BME280;46115;44.484;11.314;2022-10-19T13:52:37;100796.44;;;23.92;51.88
60258;BME280;46115;44.484;11.314;2022-10-19T13:57:14;100786.06;;;23.98;52.18
60258;BME280;46115;44.484;11.314;2022-10-19T14:01:49;100784.72;;;23.84;52.54
60258;BME280;46115;44.484;11.314;2022-10-19T14:06:23;100779.47;;;24.18;51.64
60258;BME280;46115;44.484;11.314;2022-10-19T14:10:51;100785.75;;;24.01;52.25
60258;BME280;46115;44.484;11.314;2022-10-19T14:15:22;100780.00;;;24.21;51.66
60258;BME280;46115;44.484;11.314;2022-10-19T14:19:48;100773.06;;;23.83;52.51
60258;BME280;46115;44.484;11.314;2022-10-19T14:24:19;100768.53;;;23.84;52.19
60258;BME280;46115;44.484;11.314;2022-10-19T14:28:42;100770.72;;;23.98;52.01
60258;BME280;46115;44.484;11.314;2022-10-19T14:33:07;100768.16;;;23.97;52.19
60258;BME280;46115;44.484;11.314;2022-10-19T14:37:32;100765.28;;;23.80;52.49
60258;BME280;46115;44.484;11.314;2022-10-19T14:41:54;100759.56;;;23.83;51.87
60258;BME280;46115;44.484;11.314;2022-10-19T14:46:17;100753.47;;;23.63;52.32
60258;BME280;46115;44.484;11.314;2022-10-19T14:50:42;100750.09;;;23.61;52.54
60258;BME280;46115;44.484;11.314;2022-10-19T14:55:12;100745.31;;;23.73;52.40
60258;BME280;46115;44.484;11.314;2022-10-19T14:59:38;100740.72;;;23.56;52.45
60258;BME280;46115;44.484;11.314;2022-10-19T15:04:06;100746.97;;;23.56;52.46
60258;BME280;46115;44.484;11.314;2022-10-19T15:08:36;100738.91;;;23.74;51.84
60258;BME280;46115;44.484;11.314;2022-10-19T15:13:05;100742.00;;;23.52;52.66
60258;BME280;46115;44.484;11.314;2022-10-19T15:17:30;100738.47;;;23.51;52.72
60258;BME280;46115;44.484;11.314;2022-10-19T15:22:11;100729.50;;;23.51;52.56
60258;BME280;46115;44.484;11.314;2022-10-19T15:26:35;100739.16;;;23.53;52.86
60258;BME280;46115;44.484;11.314;2022-10-19T15:31:02;100734.06;;;23.60;52.45
60258;BME280;46115;44.484;11.314;2022-10-19T15:35:28;100732.28;;;23.41;53.27
60258;BME280;46115;44.484;11.314;2022-10-19T15:39:51;100727.50;;;23.35;53.23
60258;BME280;46115;44.484;11.314;2022-10-19T15:44:29;100745.31;;;23.46;53.18
60258;BME280;46115;44.484;11.314;2022-10-19T15:48:54;100738.31;;;23.53;53.00
60258;BME280;46115;44.484;11.314;2022-10-19T15:53:18;100736.22;;;23.47;53.19
60258;BME280;46115;44.484;11.314;2022-10-19T15:57:41;100738.53;;;23.42;53.54
60258;BME280;46115;44.484;11.314;2022-10-19T16:02:11;100734.69;;;23.44;53.37
60258;BME280;46115;44.484;11.314;2022-10-19T16:06:38;100683.41;;;22.99;54.11
60258;BME280;46115;44.484;11.314;2022-10-19T16:11:01;100723.16;;;22.97;54.84
60258;BME280;46115;44.484;11.314;2022-10-19T16:15:24;100725.91;;;23.15;54.48
60258;BME280;46115;44.484;11.314;2022-10-19T16:19:47;100701.19;;;22.92;54.74
60258;BME280;46115;44.484;11.314;2022-10-19T16:24:11;100722.75;;;22.92;55.19
60258;BME280;46115;44.484;11.314;2022-10-19T16:28:34;100725.38;;;22.64;55.78
60258;BME280;46115;44.484;11.314;2022-10-19T16:32:57;100723.81;;;22.62;56.13
60258;BME280;46115;44.484;11.314;2022-10-19T16:37:20;100725.41;;;22.45;56.85
60258;BME280;46115;44.484;11.314;2022-10-19T16:41:44;100735.47;;;22.43;57.18
60258;BME280;46115;44.484;11.314;2022-10-19T16:46:07;100744.16;;;22.27;57.38
60258;BME280;46115;44.484;11.314;2022-10-19T16:50:29;100738.22;;;22.24;57.75
60258;BME280;46115;44.484;11.314;2022-10-19T22:06:09;100831.50;;;17.20;83.59
60258;BME280;46115;44.484;11.314;2022-10-19T22:10:32;100828.06;;;17.18;83.18
60258;BME280;46115;44.484;11.314;2022-10-19T22:14:54;100841.09;;;17.22;83.15
60258;BME280;46115;44.484;11.314;2022-10-19T22:19:17;100802.75;;;17.10;82.57
60258;BME280;46115;44.484;11.314;2022-10-19T22:23:41;100837.78;;;17.31;83.00
60258;BME280;46115;44.484;11.314;2022-10-19T22:28:05;100834.81;;;17.36;82.73
60258;BME280;46115;44.484;11.314;2022-10-19T22:32:27;100836.50;;;17.37;82.36
60258;BME280;46115;44.484;11.314;2022-10-19T22:36:50;100845.38;;;17.25;82.96
60258;BME280;46115;44.484;11.314;2022-10-19T22:41:14;100837.56;;;17.22;82.77
60258;BME280;46115;44.484;11.314;2022-10-19T22:45:37;100836.72;;;17.21;82.39
60258;BME280;46115;44.484;11.314;2022-10-19T22:50:00;100833.84;;;17.11;82.99
60258;BME280;46115;44.484;11.314;2022-10-19T22:54:23;100817.63;;;17.02;83.19
60258;BME280;46115;44.484;11.314;2022-10-19T22:58:47;100847.44;;;17.08;83.06
60258;BME280;46115;44.484;11.314;2022-10-19T23:03:10;100835.88;;;16.95;83.25
60258;BME280;46115;44.484;11.314;2022-10-19T23:07:32;100810.91;;;16.71;83.99
60258;BME280;46115;44.484;11.314;2022-10-19T23:11:55;100838.97;;;16.89;83.77
60258;BME280;46115;44.484;11.314;2022-10-19T23:16:19;100849.66;;;16.89;83.66
60258;BME280;46115;44.484;11.314;2022-10-19T23:20:42;100859.06;;;16.82;83.64
60258;BME280;46115;44.484;11.314;2022-10-19T23:25:06;100859.91;;;16.70;84.22
60258;BME280;46115;44.484;11.314;2022-10-19T23:29:28;100855.63;;;16.80;83.79
60258;BME280;46115;44.484;11.314;2022-10-19T23:33:53;100859.47;;;16.76;83.68
60258;BME280;46115;44.484;11.314;2022-10-19T23:38:16;100857.56;;;16.78;83.88
60258;BME280;46115;44.484;11.314;2022-10-19T23:42:38;100869.72;;;16.82;83.89
60258;BME280;46115;44.484;11.314;2022-10-19T23:47:01;100865.47;;;16.92;83.38
60258;BME280;46115;44.484;11.314;2022-10-19T23:51:25;100866.09;;;16.96;83.37
60258;BME280;46115;44.484;11.314;2022-10-19T23:55:48;100874.31;;;16.93;83.02
